Time;durP1;ratioP1;P1;durP2;ratioP2;P2;SDS_P1;SDS_P2;PMS_P1;PMS_P2;Temp;Humidity;BMP_temperature;BMP_pressure;BME280_temperature;BME280_humidity;BME280_pressure;Samples;Min_cycle;Max_cycle;Signal;HPM_P1;HPM_P2
2024/02/26 00:00:17;;;;;;;19.53;17.73;;;4.80;99.90;;;;;;5160394;27;20859;-76
2024/02/26 00:02:47;;;;;;;19.30;17.60;;;4.80;99.90;;;;;;5179854;27;20434;-76
2024/02/26 00:05:15;;;;;;;20.30;18.40;;;4.70;99.90;;;;;;5180679;27;20771;-76
2024/02/26 00:07:43;;;;;;;19.90;18.00;;;4.70;99.90;;;;;;5161212;27;20986;-76
2024/02/26 00:10:12;;;;;;;19.40;17.60;;;4.70;99.90;;;;;;5161268;27;20531;-76
2024/02/26 00:12:40;;;;;;;18.20;16.50;;;4.70;99.90;;;;;;5160891;27;20444;-76
2024/02/26 00:15:10;;;;;;;18.40;16.70;;;4.60;99.90;;;;;;5160962;27;20432;-76
2024/02/26 00:17:38;;;;;;;19.20;17.40;;;4.60;99.90;;;;;;5160755;27;20500;-76
2024/02/26 00:20:11;;;;;;;19.63;17.80;;;4.50;99.90;;;;;;5160749;27;20487;-76
2024/02/26 00:22:39;;;;;;;20.47;18.47;;;4.50;99.90;;;;;;5179963;27;20475;-76
2024/02/26 00:25:08;;;;;;;18.90;17.20;;;4.50;99.90;;;;;;5160981;27;20846;-76
2024/02/26 00:27:36;;;;;;;18.63;16.93;;;4.40;99.90;;;;;;5179089;27;20900;-76
2024/02/26 00:30:05;;;;;;;18.70;16.73;;;4.40;99.90;;;;;;5160614;27;20467;-76
2024/02/26 00:32:33;;;;;;;20.97;18.93;;;4.30;99.90;;;;;;5160473;27;20449;-76
2024/02/26 00:35:02;;;;;;;19.43;17.43;;;4.30;99.90;;;;;;5160453;27;20472;-76
2024/02/26 00:37:33;;;;;;;20.00;18.00;;;4.30;99.90;;;;;;5160603;27;20480;-76
2024/02/26 00:40:01;;;;;;;21.20;19.30;;;4.20;99.90;;;;;;5179304;27;20499;-76
2024/02/26 00:42:30;;;;;;;19.43;17.63;;;4.20;99.90;;;;;;5160343;27;20798;-76
2024/02/26 00:44:58;;;;;;;21.10;19.00;;;4.20;99.90;;;;;;5179236;27;20459;-76
2024/02/26 00:47:27;;;;;;;19.30;17.33;;;4.10;99.90;;;;;;5178961;27;20476;-76
2024/02/26 00:49:55;;;;;;;18.80;17.10;;;4.10;99.90;;;;;;5160115;27;20436;-76
2024/02/26 00:52:23;;;;;;;17.97;16.10;;;4.10;99.90;;;;;;5160171;27;20440;-76
2024/02/26 00:54:52;;;;;;;20.90;18.70;;;4.00;99.90;;;;;;5179310;27;20520;-76
2024/02/26 00:57:21;;;;;;;18.83;16.93;;;4.00;99.90;;;;;;5159853;27;20579;-76
2024/02/26 00:59:50;;;;;;;18.33;16.53;;;4.00;99.90;;;;;;5178706;27;20468;-76
2024/02/26 01:02:19;;;;;;;18.33;16.53;;;4.00;99.90;;;;;;5160230;27;20439;-76
2024/02/26 01:04:47;;;;;;;18.43;16.63;;;3.90;99.90;;;;;;5179077;27;20432;-76
2024/02/26 01:07:15;;;;;;;17.10;15.40;;;3.90;99.90;;;;;;5159854;27;20448;-75
2024/02/26 01:09:44;;;;;;;16.60;15.00;;;3.90;99.90;;;;;;5159889;27;20961;-76
2024/02/26 01:12:13;;;;;;;16.83;15.23;;;3.80;99.90;;;;;;5159012;27;20629;-76
2024/02/26 01:14:42;;;;;;;17.87;16.17;;;3.80;99.90;;;;;;5159657;27;21028;-76
2024/02/26 01:17:10;;;;;;;17.03;15.43;;;3.70;99.90;;;;;;5159448;27;20476;-76
2024/02/26 01:19:38;;;;;;;17.60;15.90;;;3.80;99.90;;;;;;5159656;27;20531;-76
2024/02/26 01:22:06;;;;;;;18.97;16.97;;;3.70;99.90;;;;;;5159876;27;20456;-76
2024/02/26 01:24:35;;;;;;;16.50;14.90;;;3.70;99.90;;;;;;5159492;27;20527;-76
2024/02/26 01:27:03;;;;;;;17.63;15.83;;;3.70;99.90;;;;;;5159435;27;20468;-76
2024/02/26 01:29:33;;;;;;;17.50;15.80;;;3.70;99.90;;;;;;5159489;27;20464;-76
2024/02/26 01:32:01;;;;;;;16.77;15.07;;;3.60;99.90;;;;;;5159638;27;20448;-76
2024/02/26 01:34:29;;;;;;;16.10;14.50;;;3.60;99.90;;;;;;5159327;27;20468;-76
2024/02/26 01:36:58;;;;;;;17.43;15.87;;;3.60;99.90;;;;;;5178159;27;20515;-76
2024/02/26 01:39:27;;;;;;;16.90;15.20;;;3.60;99.90;;;;;;5177900;27;20428;-76
2024/02/26 01:41:55;;;;;;;17.17;15.47;;;3.50;99.90;;;;;;5159439;27;20468;-76
2024/02/26 01:44:24;;;;;;;18.53;16.70;;;3.50;99.90;;;;;;5159130;27;20511;-76
2024/02/26 01:46:54;;;;;;;17.20;15.50;;;3.50;99.90;;;;;;5159268;27;21031;-76
2024/02/26 01:49:22;;;;;;;16.77;15.27;;;3.50;99.90;;;;;;5158938;27;20456;-76
2024/02/26 01:51:51;;;;;;;17.03;15.27;;;3.50;99.90;;;;;;5158853;27;20433;-76
2024/02/26 01:54:19;;;;;;;17.10;15.30;;;3.50;99.90;;;;;;5158950;27;20445;-76
2024/02/26 01:56:48;;;;;;;17.80;16.10;;;3.40;99.90;;;;;;5158704;27;20521;-75
2024/02/26 01:59:16;;;;;;;18.20;16.37;;;3.40;99.90;;;;;;5159027;27;20461;-76
2024/02/26 02:01:48;;;;;;;16.80;15.10;;;3.40;99.90;;;;;;5158693;27;20882;-76
2024/02/26 02:04:18;;;;;;;17.33;15.60;;;3.40;99.90;;;;;;5159038;27;20995;-76
2024/02/26 02:06:47;;;;;;;15.90;14.37;;;3.30;99.90;;;;;;5158584;27;20460;-76
2024/02/26 02:09:15;;;;;;;17.97;16.27;;;3.40;99.90;;;;;;5177286;27;20767;-76
2024/02/26 02:11:44;;;;;;;17.67;15.93;;;3.30;99.90;;;;;;5158583;27;20994;-76
2024/02/26 02:14:12;;;;;;;17.00;15.30;;;3.30;99.90;;;;;;5177451;27;20460;-76
2024/02/26 02:16:41;;;;;;;16.00;14.40;;;3.30;99.90;;;;;;5158315;27;20515;-76
2024/02/26 02:19:09;;;;;;;17.27;15.57;;;3.30;99.90;;;;;;5158689;27;20441;-76
2024/02/26 02:21:38;;;;;;;15.43;13.83;;;3.20;99.90;;;;;;5176803;27;20443;-76
2024/02/26 02:24:07;;;;;;;18.00;14.60;;;3.20;99.90;;;;;;5176772;27;20481;-76
2024/02/26 02:26:35;;;;;;;15.83;14.33;;;3.20;99.90;;;;;;5177213;27;20452;-77
2024/02/26 02:29:04;;;;;;;16.00;14.43;;;3.20;99.90;;;;;;5158240;27;20441;-76
2024/02/26 02:31:32;;;;;;;16.83;15.00;;;3.10;99.90;;;;;;5176926;27;20447;-76
2024/02/26 02:34:01;;;;;;;16.20;14.60;;;3.10;99.90;;;;;;5158237;27;20504;-76
2024/02/26 02:36:30;;;;;;;16.03;14.50;;;3.10;99.90;;;;;;5176808;27;20506;-76
2024/02/26 02:39:00;;;;;;;16.97;15.20;;;3.10;99.90;;;;;;5177296;27;20456;-76
2024/02/26 02:41:29;;;;;;;15.47;13.97;;;3.10;99.90;;;;;;5177443;27;20428;-76
2024/02/26 02:43:58;;;;;;;16.67;14.87;;;3.00;99.90;;;;;;5157971;27;20867;-76
2024/02/26 02:46:26;;;;;;;19.67;16.37;;;3.10;99.90;;;;;;5157953;27;20439;-76
2024/02/26 02:48:54;;;;;;;16.50;14.80;;;3.00;99.90;;;;;;5157939;27;20439;-76
2024/02/26 02:51:23;;;;;;;17.80;16.00;;;3.00;99.90;;;;;;5158176;27;20440;-76
2024/02/26 02:53:51;;;;;;;18.60;16.73;;;3.00;99.90;;;;;;5176541;27;20972;-76
2024/02/26 02:56:21;;;;;;;19.40;16.83;;;3.00;99.90;;;;;;5157749;27;20961;-75
2024/02/26 02:58:49;;;;;;;17.10;15.27;;;3.00;99.90;;;;;;5157722;27;20870;-76
2024/02/26 03:01:17;;;;;;;17.97;15.90;;;3.00;99.90;;;;;;5157746;27;20441;-76
2024/02/26 03:03:45;;;;;;;18.33;16.43;;;2.90;99.90;;;;;;5157619;27;20445;-76
2024/02/26 03:06:13;;;;;;;17.60;15.80;;;2.90;99.90;;;;;;5176501;27;20497;-76
2024/02/26 03:08:42;;;;;;;17.50;15.27;;;2.90;99.90;;;;;;5176253;27;20433;-76
2024/02/26 03:11:14;;;;;;;17.97;15.60;;;2.90;99.90;;;;;;5176387;27;20799;-76
2024/02/26 03:13:45;;;;;;;15.87;14.23;;;2.90;99.90;;;;;;5157540;27;20447;-75
2024/02/26 03:16:13;;;;;;;17.47;15.60;;;2.80;99.90;;;;;;5176400;27;20404;-76
2024/02/26 03:18:42;;;;;;;17.63;14.97;;;2.80;99.90;;;;;;5157374;27;20544;-76
2024/02/26 03:21:10;;;;;;;19.47;17.50;;;2.80;99.90;;;;;;5176134;27;20436;-76
2024/02/26 03:23:38;;;;;;;19.10;16.43;;;2.80;99.90;;;;;;5176365;27;20433;-76
2024/02/26 03:26:08;;;;;;;20.20;16.77;;;2.80;99.90;;;;;;5157342;27;20523;-76
2024/02/26 03:28:36;;;;;;;17.30;15.40;;;2.80;99.90;;;;;;5175870;27;20440;-76
2024/02/26 03:31:06;;;;;;;19.77;17.00;;;2.80;99.90;;;;;;5157335;27;20444;-76
2024/02/26 03:33:35;;;;;;;21.17;19.00;;;2.80;99.90;;;;;;5156937;27;20504;-76
2024/02/26 03:36:04;;;;;;;20.00;17.90;;;2.80;99.90;;;;;;5157243;27;20486;-76
2024/02/26 03:38:32;;;;;;;21.60;19.27;;;2.80;99.90;;;;;;5157154;27;20919;-76
2024/02/26 03:41:00;;;;;;;21.83;19.20;;;2.80;99.90;;;;;;5157291;27;20878;-76
2024/02/26 03:43:28;;;;;;;22.70;20.43;;;2.80;99.90;;;;;;5157179;27;20449;-76
2024/02/26 03:45:57;;;;;;;23.07;19.80;;;2.80;99.90;;;;;;5157110;27;20442;-76
2024/02/26 03:48:26;;;;;;;22.60;19.80;;;2.80;99.90;;;;;;5157026;27;20848;-76
2024/02/26 03:50:55;;;;;;;22.80;19.90;;;2.80;99.90;;;;;;5157071;27;20975;-76
2024/02/26 03:53:23;;;;;;;23.93;18.77;;;2.80;99.90;;;;;;5157146;27;20437;-76
2024/02/26 03:55:52;;;;;;;17.77;15.87;;;2.90;99.90;;;;;;5175703;27;20433;-76
2024/02/26 03:58:20;;;;;;;19.13;17.10;;;2.80;99.90;;;;;;5175620;27;20468;-76
2024/02/26 04:00:49;;;;;;;19.10;16.47;;;2.80;99.90;;;;;;5175659;27;20435;-76
2024/02/26 04:03:17;;;;;;;18.27;15.50;;;2.90;99.90;;;;;;5175830;27;20432;-76
2024/02/26 04:05:47;;;;;;;19.50;16.10;;;2.80;99.90;;;;;;5175898;27;20436;-76
2024/02/26 04:08:15;;;;;;;19.80;16.43;;;2.80;99.90;;;;;;5156911;27;20455;-76
2024/02/26 04:10:43;;;;;;;18.33;16.23;;;2.80;99.90;;;;;;5175853;27;20482;-75
2024/02/26 04:13:12;;;;;;;17.57;15.27;;;2.80;99.90;;;;;;5156913;27;20816;-76
2024/02/26 04:15:40;;;;;;;17.37;15.27;;;2.80;99.90;;;;;;5156897;27;20845;-76
2024/02/26 04:18:08;;;;;;;18.57;16.57;;;2.80;99.90;;;;;;5175359;27;20471;-76
2024/02/26 04:20:37;;;;;;;19.10;17.13;;;2.80;99.90;;;;;;5176024;27;20519;-76
2024/02/26 04:23:07;;;;;;;17.43;15.53;;;2.80;99.90;;;;;;5175527;27;20433;-76
2024/02/26 04:25:35;;;;;;;18.00;16.10;;;2.80;99.90;;;;;;5175418;27;20968;-76
2024/02/26 04:28:04;;;;;;;17.77;15.87;;;2.80;99.90;;;;;;5156544;27;20536;-76
2024/02/26 04:30:32;;;;;;;21.67;17.90;;;2.80;99.90;;;;;;5156682;27;20452;-76
2024/02/26 04:33:00;;;;;;;17.57;15.77;;;2.80;99.90;;;;;;5156626;27;20448;-76
2024/02/26 04:35:29;;;;;;;19.77;17.00;;;2.80;99.90;;;;;;5156616;27;20855;-76
2024/02/26 04:37:57;;;;;;;18.57;16.60;;;2.80;99.90;;;;;;5156492;27;20463;-76
2024/02/26 04:40:27;;;;;;;20.63;17.00;;;2.80;99.90;;;;;;5175289;27;20468;-76
2024/02/26 04:42:55;;;;;;;16.73;14.93;;;2.80;99.90;;;;;;5175398;27;20468;-76
2024/02/26 04:45:23;;;;;;;18.60;15.60;;;2.80;99.90;;;;;;5156796;27;20451;-76
2024/02/26 04:47:51;;;;;;;19.37;17.37;;;2.80;99.90;;;;;;5178929;27;20452;-76
2024/02/26 04:50:20;;;;;;;18.07;15.60;;;2.80;99.90;;;;;;5160337;27;20449;-76
2024/02/26 04:52:48;;;;;;;20.53;17.20;;;2.80;99.90;;;;;;5160316;27;20858;-76
2024/02/26 04:55:16;;;;;;;21.30;17.33;;;2.80;99.90;;;;;;5160363;27;20439;-76
2024/02/26 04:57:46;;;;;;;18.60;16.70;;;2.80;99.90;;;;;;5160107;27;20456;-76
2024/02/26 05:00:15;;;;;;;18.73;16.33;;;2.80;99.90;;;;;;5178980;27;20911;-75
2024/02/26 05:02:43;;;;;;;20.43;18.33;;;2.80;99.90;;;;;;5160039;27;20965;-76
2024/02/26 05:05:12;;;;;;;17.73;15.93;;;2.80;99.90;;;;;;5178775;27;20440;-76
2024/02/26 05:07:42;;;;;;;19.70;17.70;;;2.80;99.90;;;;;;5160171;27;21079;-76
2024/02/26 05:10:10;;;;;;;19.70;16.40;;;2.80;99.90;;;;;;5159932;27;20543;-76
2024/02/26 05:12:40;;;;;;;19.13;17.03;;;2.80;99.90;;;;;;5178543;27;20530;-76
2024/02/26 05:15:10;;;;;;;19.83;16.50;;;2.80;99.90;;;;;;5159886;27;20483;-76
2024/02/26 05:17:39;;;;;;;18.17;16.23;;;2.80;99.90;;;;;;5178402;27;20458;-76
2024/02/26 05:20:09;;;;;;;18.30;16.40;;;2.80;99.90;;;;;;5159597;27;20460;-76
2024/02/26 05:22:38;;;;;;;18.87;16.87;;;2.80;99.90;;;;;;5178408;27;20431;-76
2024/02/26 05:25:06;;;;;;;20.50;16.23;;;2.80;99.90;;;;;;5159643;27;20492;-76
2024/02/26 05:27:35;;;;;;;19.63;17.57;;;2.80;99.90;;;;;;5159290;27;20476;-76
2024/02/26 05:30:04;;;;;;;19.57;17.37;;;2.80;99.90;;;;;;5159577;27;20440;-76
2024/02/26 05:32:34;;;;;;;22.60;17.87;;;2.80;99.90;;;;;;5178677;27;20421;-76
2024/02/26 05:35:03;;;;;;;20.57;17.53;;;2.80;99.90;;;;;;5178398;27;20436;-77
2024/02/26 05:37:32;;;;;;;21.40;18.20;;;2.80;99.90;;;;;;5159341;27;20961;-77
2024/02/26 05:40:00;;;;;;;22.87;18.30;;;2.80;99.90;;;;;;5177927;27;20556;-77
2024/02/26 05:42:28;;;;;;;25.47;20.50;;;2.80;99.90;;;;;;5159281;27;20441;-77
2024/02/26 05:44:56;;;;;;;23.17;19.73;;;2.80;99.90;;;;;;5159252;27;20509;-77
2024/02/26 05:47:25;;;;;;;28.07;22.20;;;2.80;99.90;;;;;;5159043;27;21056;-77
2024/02/26 05:49:55;;;;;;;32.40;23.93;;;2.80;99.90;;;;;;5177810;27;20493;-77
2024/02/26 05:52:23;;;;;;;34.90;24.83;;;2.80;99.90;;;;;;5177826;27;20523;-77
2024/02/26 05:54:54;;;;;;;37.03;25.03;;;2.80;99.90;;;;;;5177788;27;20830;-77
2024/02/26 05:57:22;;;;;;;38.77;26.80;;;2.80;99.90;;;;;;5158646;27;20460;-76
2024/02/26 05:59:51;;;;;;;39.17;25.53;;;2.80;99.90;;;;;;5158984;27;21012;-76
2024/02/26 06:02:19;;;;;;;40.53;25.10;;;2.80;99.90;;;;;;5178095;27;20440;-76
2024/02/26 06:04:47;;;;;;;38.50;26.07;;;2.80;99.90;;;;;;5177782;27;20481;-76
2024/02/26 06:07:17;;;;;;;38.30;26.83;;;2.80;99.90;;;;;;5158714;27;20468;-77
2024/02/26 06:09:46;;;;;;;43.83;24.87;;;2.80;99.90;;;;;;5177798;27;20772;-76
2024/02/26 06:12:14;;;;;;;44.00;27.73;;;2.80;99.90;;;;;;5158784;27;20452;-77
2024/02/26 06:14:43;;;;;;;38.80;25.33;;;2.80;99.90;;;;;;5177267;27;20526;-77
2024/02/26 06:17:11;;;;;;;36.43;25.13;;;2.80;99.90;;;;;;5158701;27;20486;-76
2024/02/26 06:19:40;;;;;;;42.00;26.43;;;2.80;99.90;;;;;;5158618;27;20471;-77
2024/02/26 06:22:08;;;;;;;42.90;25.50;;;2.80;99.90;;;;;;5158761;27;20440;-76
2024/02/26 06:24:38;;;;;;;46.37;29.30;;;2.80;99.90;;;;;;5177202;27;20436;-77
2024/02/26 06:27:08;;;;;;;45.67;30.10;;;2.90;99.90;;;;;;5177258;27;20472;-76
2024/02/26 06:29:36;;;;;;;46.60;27.70;;;2.90;99.90;;;;;;5158704;27;20429;-75
2024/02/26 06:32:06;;;;;;;44.20;29.63;;;2.90;99.90;;;;;;5158352;27;20441;-75
2024/02/26 06:34:34;;;;;;;41.43;27.83;;;2.90;99.90;;;;;;5158328;27;20957;-77
2024/02/26 06:37:03;;;;;;;40.40;27.77;;;3.00;99.90;;;;;;5158975;27;20456;-77
2024/02/26 06:39:34;;;;;;;40.67;27.00;;;2.90;99.90;;;;;;5159285;27;20511;-77
2024/02/26 06:42:04;;;;;;;43.77;29.10;;;3.00;99.90;;;;;;5158241;27;20491;-77
2024/02/26 06:44:32;;;;;;;40.40;28.33;;;3.00;99.90;;;;;;5176649;27;20778;-77
2024/02/26 06:47:01;;;;;;;45.93;30.90;;;3.00;99.90;;;;;;5176915;27;20509;-77
2024/02/26 06:49:29;;;;;;;42.30;28.70;;;3.00;99.90;;;;;;5176586;27;20462;-77
2024/02/26 06:51:58;;;;;;;47.70;33.63;;;3.10;99.90;;;;;;5158028;27;20467;-76
2024/02/26 06:54:27;;;;;;;42.90;28.53;;;3.10;99.90;;;;;;5157860;27;20518;-77
2024/02/26 06:56:55;;;;;;;49.83;31.30;;;3.10;99.90;;;;;;5157665;27;20472;-77
2024/02/26 06:59:25;;;;;;;42.27;28.13;;;3.10;99.90;;;;;;5157743;27;20579;-77
2024/02/26 07:01:59;;;;;;;41.73;29.00;;;3.10;99.90;;;;;;5176855;27;20439;-77
2024/02/26 07:04:27;;;;;;;45.97;30.13;;;3.10;99.90;;;;;;5158425;27;20495;-77
2024/02/26 07:06:58;;;;;;;45.23;30.37;;;3.10;99.90;;;;;;5157766;27;20468;-77
2024/02/26 07:09:29;;;;;;;41.97;28.30;;;3.20;99.90;;;;;;5157224;27;20444;-77
2024/02/26 07:11:57;;;;;;;36.17;23.27;;;3.20;99.90;;;;;;5157810;27;20856;-78
2024/02/26 07:14:30;;;;;;;40.53;29.60;;;3.20;99.90;;;;;;5176314;27;20413;-77
2024/02/26 07:16:59;;;;;;;43.20;30.67;;;3.30;99.90;;;;;;5157522;27;20543;-77
2024/02/26 07:19:27;;;;;;;38.33;26.97;;;3.30;99.90;;;;;;5157193;27;20451;-77
2024/02/26 07:21:56;;;;;;;40.97;28.07;;;3.30;99.90;;;;;;5157313;27;20945;-77
2024/02/26 07:24:24;;;;;;;41.17;27.80;;;3.30;99.90;;;;;;5157703;27;20949;-77
2024/02/26 07:26:54;;;;;;;42.87;27.23;;;3.30;99.90;;;;;;5157261;27;20461;-77
2024/02/26 07:29:22;;;;;;;39.10;27.30;;;3.30;99.90;;;;;;5176317;27;20459;-77
2024/02/26 07:31:52;;;;;;;40.00;27.30;;;3.30;99.90;;;;;;5175896;27;20954;-77
2024/02/26 07:34:27;;;;;;;38.53;29.70;;;3.30;99.90;;;;;;5175418;27;20447;-77
2024/02/26 07:36:58;;;;;;;39.73;27.40;;;3.40;99.90;;;;;;5176051;27;20980;-77
2024/02/26 07:39:26;;;;;;;37.27;27.87;;;3.40;99.90;;;;;;5175970;27;20515;-77
2024/02/26 07:41:58;;;;;;;38.80;27.97;;;3.40;99.90;;;;;;5157170;27;20520;-77
2024/02/26 07:44:26;;;;;;;34.70;25.23;;;3.40;99.90;;;;;;5175758;27;20437;-77
2024/02/26 07:46:56;;;;;;;34.10;25.33;;;3.40;99.90;;;;;;5157010;27;20452;-77
2024/02/26 07:49:27;;;;;;;29.50;23.27;;;3.40;99.90;;;;;;5157050;27;20452;-77
2024/02/26 07:51:57;;;;;;;28.60;21.87;;;3.40;99.90;;;;;;5157122;27;20458;-77
2024/02/26 07:54:26;;;;;;;34.30;25.97;;;3.50;99.90;;;;;;5157223;27;20444;-77
2024/02/26 07:56:55;;;;;;;32.33;25.03;;;3.50;99.90;;;;;;5156987;27;20516;-77
2024/02/26 07:59:24;;;;;;;33.60;23.60;;;3.50;99.90;;;;;;5157007;27;20547;-77
2024/02/26 08:01:52;;;;;;;31.23;23.03;;;3.50;99.90;;;;;;5175853;27;20491;-77
2024/02/26 08:04:27;;;;;;;32.87;25.30;;;3.60;99.90;;;;;;5176101;27;20976;-77
2024/02/26 08:06:56;;;;;;;32.50;24.03;;;3.50;99.90;;;;;;5175788;27;20543;-77
2024/02/26 08:09:24;;;;;;;30.27;24.30;;;3.60;99.90;;;;;;5175879;27;20424;-77
2024/02/26 08:11:53;;;;;;;30.47;22.50;;;3.60;99.90;;;;;;5157027;27;20455;-77
2024/02/26 08:14:21;;;;;;;33.50;25.10;;;3.60;99.90;;;;;;5156884;27;20447;-77
2024/02/26 08:16:51;;;;;;;32.83;25.83;;;3.60;99.90;;;;;;5156873;27;20472;-77
2024/02/26 08:19:21;;;;;;;34.50;25.90;;;3.70;99.90;;;;;;5175698;27;20413;-77
2024/02/26 08:21:51;;;;;;;31.80;23.73;;;3.70;99.90;;;;;;5160861;27;20463;-77
2024/02/26 08:24:19;;;;;;;30.20;23.17;;;3.70;99.90;;;;;;5179446;27;20428;-77
2024/02/26 08:26:47;;;;;;;33.73;24.33;;;3.70;99.90;;;;;;5160522;27;20472;-77
2024/02/26 08:29:18;;;;;;;27.00;23.00;;;3.70;99.90;;;;;;5179830;27;20495;-77
2024/02/26 08:31:50;;;;;;;29.37;22.50;;;3.70;99.90;;;;;;5179759;27;20420;-77
2024/02/26 08:34:18;;;;;;;30.13;23.30;;;3.80;99.90;;;;;;5179652;27;20417;-77
2024/02/26 08:36:48;;;;;;;33.50;24.53;;;3.80;99.90;;;;;;5160872;27;20532;-76
2024/02/26 08:39:19;;;;;;;32.23;24.97;;;3.80;99.90;;;;;;5179508;27;20416;-77
2024/02/26 08:41:50;;;;;;;31.63;24.13;;;3.80;99.90;;;;;;5160459;27;20471;-77
2024/02/26 08:44:19;;;;;;;28.83;23.53;;;3.90;99.90;;;;;;5160470;27;20441;-77
2024/02/26 08:46:50;;;;;;;32.50;24.77;;;3.90;99.90;;;;;;5179378;27;20525;-77
2024/02/26 08:49:23;;;;;;;31.47;25.07;;;3.90;99.90;;;;;;5160293;27;20519;-77
2024/02/26 08:51:51;;;;;;;31.50;24.93;;;3.90;99.90;;;;;;5160449;27;21004;-77
2024/02/26 08:54:21;;;;;;;28.40;24.63;;;3.90;99.90;;;;;;5179038;27;20477;-77
2024/02/26 08:56:49;;;;;;;28.20;23.50;;;4.00;99.90;;;;;;5160246;27;20819;-76
2024/02/26 08:59:22;;;;;;;29.43;24.00;;;4.00;99.90;;;;;;5160507;27;20437;-77
2024/02/26 09:01:50;;;;;;;31.07;25.30;;;4.00;99.90;;;;;;5160133;27;20460;-77
2024/02/26 09:04:19;;;;;;;30.50;24.93;;;4.00;99.90;;;;;;5160263;27;20437;-77
2024/02/26 09:06:48;;;;;;;32.03;24.00;;;4.00;99.90;;;;;;5178870;27;20808;-77
2024/02/26 09:09:17;;;;;;;28.90;25.33;;;4.10;99.90;;;;;;5160060;27;20473;-77
2024/02/26 09:11:47;;;;;;;26.80;22.10;;;4.10;99.90;;;;;;5160010;27;20536;-77
2024/02/26 09:14:15;;;;;;;29.10;24.33;;;4.10;99.90;;;;;;5179216;27;20436;-77
2024/02/26 09:16:43;;;;;;;31.27;24.40;;;4.10;99.90;;;;;;5178736;27;20547;-77
2024/02/26 09:19:13;;;;;;;29.00;25.33;;;4.10;99.90;;;;;;5178495;27;20477;-77
2024/02/26 09:21:44;;;;;;;27.00;21.90;;;4.20;99.90;;;;;;5178788;27;20465;-77
2024/02/26 09:24:13;;;;;;;25.40;21.20;;;4.20;99.90;;;;;;5159686;27;20803;-77
2024/02/26 09:26:41;;;;;;;28.20;23.53;;;4.20;99.90;;;;;;5158944;27;20841;-77
2024/02/26 09:29:20;;;;;;;26.50;23.20;;;4.20;99.90;;;;;;5178342;27;20420;-77
2024/02/26 09:31:48;;;;;;;30.60;23.70;;;4.30;99.90;;;;;;5159010;27;20993;-77
2024/02/26 09:34:18;;;;;;;29.87;24.80;;;4.30;99.90;;;;;;5178677;27;20429;-77
2024/02/26 09:36:53;;;;;;;26.77;23.70;;;4.40;99.90;;;;;;5178532;27;21036;-77
2024/02/26 09:39:29;;;;;;;29.27;24.17;;;4.40;99.90;;;;;;5159522;27;20428;-77
2024/02/26 09:41:59;;;;;;;24.40;21.07;;;4.50;99.90;;;;;;5159413;27;20500;-77
2024/02/26 09:44:33;;;;;;;25.83;23.13;;;4.50;99.90;;;;;;5178127;27;20472;-77
2024/02/26 09:47:08;;;;;;;25.50;22.53;;;4.50;99.90;;;;;;5178098;27;20459;-77
2024/02/26 09:49:37;;;;;;;27.00;22.07;;;4.60;99.90;;;;;;5159744;27;20428;-77
2024/02/26 09:52:07;;;;;;;25.23;21.97;;;4.60;99.90;;;;;;5159348;27;20440;-77
2024/02/26 09:54:36;;;;;;;25.27;22.53;;;4.60;99.90;;;;;;5160235;27;20489;-77
2024/02/26 09:57:07;;;;;;;27.73;24.83;;;4.70;99.90;;;;;;5159185;27;20893;-77
2024/02/26 09:59:41;;;;;;;24.93;22.43;;;4.80;99.90;;;;;;5178102;27;20419;-77
2024/02/26 10:02:13;;;;;;;27.43;23.50;;;4.80;99.90;;;;;;5159210;27;20857;-76
2024/02/26 10:04:45;;;;;;;21.37;19.30;;;4.80;99.90;;;;;;5159198;27;20837;-77
2024/02/26 10:07:19;;;;;;;24.30;21.80;;;4.90;99.90;;;;;;5177912;27;20977;-76
2024/02/26 10:09:48;;;;;;;23.13;20.73;;;4.90;99.90;;;;;;5177795;27;20482;-76
2024/02/26 10:12:17;;;;;;;26.43;23.80;;;5.00;99.90;;;;;;5158880;27;20497;-76
2024/02/26 10:14:52;;;;;;;24.40;21.90;;;5.10;99.90;;;;;;5178390;27;20832;-76
2024/02/26 10:17:21;;;;;;;25.27;22.90;;;5.10;99.90;;;;;;5158747;27;20993;-76
2024/02/26 10:19:56;;;;;;;22.83;20.63;;;5.20;99.90;;;;;;5177596;27;20433;-76
2024/02/26 10:22:24;;;;;;;25.23;22.63;;;5.20;99.90;;;;;;5158741;27;20456;-76
2024/02/26 10:24:55;;;;;;;23.13;20.90;;;5.30;99.90;;;;;;5158803;27;20440;-76
2024/02/26 10:27:25;;;;;;;23.53;21.10;;;5.30;99.90;;;;;;5158453;27;20570;-76
2024/02/26 10:29:58;;;;;;;21.93;19.83;;;5.40;99.90;;;;;;5177172;27;20424;-76
2024/02/26 10:32:26;;;;;;;23.23;20.90;;;5.50;99.90;;;;;;5158506;27;20441;-77
2024/02/26 10:34:57;;;;;;;23.47;21.27;;;5.50;99.90;;;;;;5158611;27;20442;-77
2024/02/26 10:37:26;;;;;;;24.27;22.00;;;5.60;99.90;;;;;;5177494;27;20842;-77
2024/02/26 10:39:59;;;;;;;23.83;21.60;;;5.60;99.90;;;;;;5159064;27;20443;-76
2024/02/26 10:42:28;;;;;;;23.20;21.07;;;5.70;99.90;;;;;;5177629;27;20453;-77
2024/02/26 10:45:02;;;;;;;23.13;20.93;;;5.70;99.90;;;;;;5176478;27;20426;-77
2024/02/26 10:47:33;;;;;;;22.30;20.23;;;5.80;99.90;;;;;;5158309;27;20460;-77
2024/02/26 10:50:03;;;;;;;23.10;21.00;;;5.80;99.90;;;;;;5158718;27;20444;-77
2024/02/26 10:52:34;;;;;;;22.20;19.93;;;5.90;99.90;;;;;;5177235;27;20466;-77
2024/02/26 10:55:05;;;;;;;23.10;21.00;;;5.90;99.90;;;;;;5177388;27;20772;-77
2024/02/26 10:57:37;;;;;;;22.33;20.03;;;5.90;99.90;;;;;;5177291;27;20574;-76
2024/02/26 11:00:15;;;;;;;23.77;21.57;;;5.90;99.90;;;;;;5158270;27;20442;-77
2024/02/26 11:02:46;;;;;;;23.00;20.80;;;6.00;99.90;;;;;;5176975;27;20465;-76
2024/02/26 11:05:15;;;;;;;23.60;21.40;;;6.00;99.90;;;;;;5177312;27;20423;-77
2024/02/26 11:07:49;;;;;;;24.43;22.07;;;6.00;99.90;;;;;;5158273;27;20466;-77
2024/02/26 11:10:20;;;;;;;23.10;20.83;;;6.10;99.90;;;;;;5158167;27;20436;-77
2024/02/26 11:12:50;;;;;;;24.37;22.13;;;6.10;99.90;;;;;;5177054;27;20421;-77
2024/02/26 11:15:21;;;;;;;25.60;23.20;;;6.10;99.90;;;;;;5158270;27;20494;-77
2024/02/26 11:17:53;;;;;;;23.83;21.73;;;6.20;99.90;;;;;;5158489;27;20471;-77
2024/02/26 11:20:29;;;;;;;23.10;20.80;;;6.20;99.90;;;;;;5158471;27;20840;-77
2024/02/26 11:22:57;;;;;;;24.00;21.80;;;6.20;99.90;;;;;;5176948;27;21016;-77
2024/02/26 11:25:26;;;;;;;23.67;21.47;;;6.20;99.90;;;;;;5158257;27;20494;-77
2024/02/26 11:28:00;;;;;;;22.47;20.27;;;6.30;99.90;;;;;;5176330;27;20469;-78
2024/02/26 11:30:38;;;;;;;23.13;20.93;;;6.30;99.90;;;;;;5157744;27;20822;-77
2024/02/26 11:33:08;;;;;;;22.90;20.80;;;6.40;99.90;;;;;;5157516;27;20431;-76
2024/02/26 11:35:40;;;;;;;21.67;19.63;;;6.40;99.90;;;;;;5157876;27;20802;-76
2024/02/26 11:38:09;;;;;;;21.97;19.83;;;6.40;99.90;;;;;;5157567;27;20516;-76
2024/02/26 11:40:40;;;;;;;22.67;20.43;;;6.50;99.90;;;;;;5157615;27;20472;-76
2024/02/26 11:43:10;;;;;;;20.93;18.80;;;6.50;99.90;;;;;;5159589;27;20475;-77
2024/02/26 11:45:59;;;;;;;19.83;18.03;;;6.50;99.90;;;;;;5158452;27;20455;-76
2024/02/26 11:48:30;;;;;;;19.97;18.17;;;6.60;99.90;;;;;;5157610;27;20555;-76
2024/02/26 11:50:59;;;;;;;21.43;19.20;;;6.60;99.90;;;;;;5157689;27;20431;-76
2024/02/26 11:53:30;;;;;;;20.30;18.40;;;6.60;99.90;;;;;;5157155;27;20772;-76
2024/02/26 11:56:21;;;;;;;20.80;18.90;;;6.70;99.90;;;;;;5179454;27;20766;-76
2024/02/26 11:58:50;;;;;;;19.73;17.93;;;6.70;99.90;;;;;;5180423;27;20457;-77
2024/02/26 12:01:40;;;;;;;18.27;16.57;;;6.80;99.90;;;;;;5164391;27;20971;-78
2024/02/26 12:04:12;;;;;;;19.50;17.57;;;6.80;99.90;;;;;;5164641;27;20808;-77
2024/02/26 12:06:47;;;;;;;18.43;16.83;;;6.80;99.90;;;;;;5180978;27;20980;-78
2024/02/26 12:09:40;;;;;;;20.03;18.13;;;6.90;99.90;;;;;;5163363;27;20445;-77
2024/02/26 12:12:14;;;;;;;17.90;16.30;;;6.90;99.90;;;;;;5160903;27;20443;-76
2024/02/26 12:14:56;;;;;;;19.07;17.33;;;6.90;99.90;;;;;;5180469;27;20499;-76
2024/02/26 12:17:27;;;;;;;18.63;16.97;;;7.00;99.90;;;;;;5161526;27;20475;-78
2024/02/26 12:19:55;;;;;;;18.17;16.53;;;7.20;99.90;;;;;;5162799;27;20434;-78
2024/02/26 12:22:25;;;;;;;17.57;15.97;;;7.00;99.90;;;;;;5180139;27;20517;-77
2024/02/26 12:25:00;;;;;;;17.03;15.50;;;7.10;99.90;;;;;;5160874;27;20460;-76
2024/02/26 12:27:29;;;;;;;16.40;14.97;;;7.10;99.90;;;;;;5160566;27;20523;-76
2024/02/26 12:29:58;;;;;;;17.07;15.57;;;7.10;99.90;;;;;;5161133;27;20534;-75
2024/02/26 12:32:28;;;;;;;17.77;16.27;;;7.10;99.90;;;;;;5160905;27;20454;-76
2024/02/26 12:35:03;;;;;;;17.40;15.87;;;7.20;99.90;;;;;;5160965;27;20436;-78
2024/02/26 12:37:33;;;;;;;17.27;15.77;;;7.20;99.90;;;;;;5160819;27;20542;-77
2024/02/26 12:40:02;;;;;;;19.87;17.77;;;7.30;99.90;;;;;;5160655;27;20450;-76
2024/02/26 12:42:32;;;;;;;17.90;16.20;;;7.30;99.90;;;;;;5160498;27;20455;-76
2024/02/26 12:45:00;;;;;;;16.90;15.33;;;7.40;99.90;;;;;;5180023;27;20420;-76
2024/02/26 12:47:33;;;;;;;17.20;15.60;;;7.50;99.90;;;;;;5160576;27;21035;-77